Data for 02/09/2007

Time Sea-Level Adjusted Pressure Absolute Pressure Temperature Relative Humidity Dew Point   
(mb) (inHg) (mb) (inHg) (C) (F) (%) (C) (F)
00:05 1020 30.12 849 25.07 -4.6 23.7 93 -5.6 22
00:10 1020 30.12 849 25.07 -4.6 23.8 93 -5.5 22
00:15 1020 30.12 849 25.07 -4.5 23.8 93 -5.6 22
00:20 1020 30.12 849 25.07 -4.6 23.7 93 -5.6 21.9
00:25 1020 30.12 849 25.07 -4.6 23.7 93 -5.6 22
00:30 1020 30.12 849 25.07 -4.9 23.1 94 -5.8 21.6
00:35 1020 30.12 849 25.07 -5 23.1 94 -5.7 21.7
00:40 1020 30.12 849 25.07 -5 23 94 -5.7 21.7
00:45 1020 30.12 849 25.07 -5 23.1 94 -5.7 21.7
00:50 1019 30.09 849 25.07 -5.1 22.8 94 -5.9 21.4
00:55 1019 30.09 849 25.07 -5.2 22.7 95 -5.9 21.4
01:00 1019 30.09 849 25.07 -5.1 22.8 95 -5.8 21.5
01:05 1019 30.09 849 25.07 -5 23 95 -5.7 21.8
01:10 1019 30.09 849 25.07 -4.9 23.1 95 -5.7 21.7
01:15 1019 30.09 849 25.07 -5 23 95 -5.7 21.8
01:20 1019 30.09 849 25.07 -5 23.1 95 -5.7 21.8
01:25 1019 30.09 848 25.04 -4.9 23.1 95 -5.6 21.9
01:30 1019 30.09 848 25.04 -4.9 23.2 95 -5.6 22
01:35 1019 30.09 848 25.04 -4.9 23.1 95 -5.6 21.9
01:40 1019 30.09 848 25.04 -5 22.9 95 -5.7 21.7
01:45 1019 30.09 848 25.04 -5.2 22.7 96 -5.8 21.6
01:50 1019 30.09 848 25.04 -5.1 22.8 96 -5.7 21.8
01:55 1019 30.09 848 25.04 -5.1 22.8 96 -5.7 21.7
02:00 1019 30.09 848 25.04 -5.2 22.7 95 -5.9 21.4
02:05 1019 30.09 848 25.04 -5.2 22.6 94 -6.1 21.1
02:10 1019 30.09 848 25.04 -5.3 22.5 93 -6.2 20.9
02:15 1019 30.09 848 25.04 -5.4 22.3 92 -6.4 20.4
02:20 1019 30.09 848 25.04 -5.4 22.2 92 -6.6 20.2
02:25 1019 30.09 848 25.04 -5.3 22.4 91 -6.5 20.2
02:30 1019 30.09 848 25.04 -5.2 22.7 91 -6.5 20.4
02:35 1019 30.09 848 25.04 -5.1 22.8 91 -6.4 20.4
02:40 1019 30.09 848 25.04 -5.1 22.8 91 -6.4 20.5
02:45 1019 30.09 848 25.04 -5 23 90 -6.4 20.5
02:50 1019 30.09 848 25.04 -5 23.1 90 -6.4 20.5
02:55 1019 30.09 848 25.04 -4.9 23.2 90 -6.3 20.6
03:00 1019 30.09 848 25.04 -4.8 23.3 90 -6.3 20.7
03:05 1019 30.09 848 25.04 -4.8 23.4 90 -6.2 20.8
03:10 1019 30.09 848 25.04 -4.7 23.6 90 -6.1 21
03:15 1019 30.09 848 25.04 -4.7 23.6 89 -6.2 20.8
03:20 1019 30.09 848 25.04 -4.8 23.4 90 -6.2 20.8
03:25 1019 30.09 848 25.04 -4.9 23.2 91 -6.1 20.9
03:30 1019 30.09 848 25.04 -5 23 92 -6.1 21
03:35 1019 30.09 848 25.04 -5.1 22.9 92 -6.1 21
03:40 1019 30.09 848 25.04 -5.1 22.8 93 -6.1 21
03:45 1019 30.09 848 25.04 -5.2 22.6 95 -5.9 21.4
03:50 1019 30.09 848 25.04 -5.2 22.6 95 -5.8 21.5
03:55 1019 30.09 848 25.04 -5.3 22.5 96 -5.9 21.4
04:00 1019 30.09 848 25.04 -5.3 22.5 96 -5.8 21.6
04:05 1019 30.09 848 25.04 -5.2 22.6 96 -5.8 21.6
04:10 1019 30.09 848 25.04 -5.3 22.4 96 -5.9 21.5
04:15 1019 30.09 848 25.04 -5.4 22.3 96 -5.9 21.4
04:20 1019 30.09 848 25.04 -5.6 21.9 96 -6.1 21
04:25 1019 30.09 848 25.04 -6 21.3 97 -6.3 20.6
04:30 1019 30.09 848 25.04 -6 21.1 98 -6.3 20.6
04:35 1019 30.09 848 25.04 -5.9 21.4 98 -6.2 20.9
04:40 1019 30.09 848 25.04 -5.8 21.5 98 -6.1 21
04:45 1019 30.09 848 25.04 -5.9 21.3 98 -6.3 20.7
04:50 1019 30.09 848 25.04 -5.9 21.4 97 -6.3 20.7
04:55 1019 30.09 848 25.04 -6.1 21 97 -6.5 20.3
05:00 1019 30.09 848 25.04 -6.1 20.9 97 -6.5 20.3
05:05 1019 30.09 848 25.04 -6 21.2 98 -6.3 20.7
05:10 1019 30.09 848 25.04 -5.8 21.5 98 -6.1 20.9
05:15 1019 30.09 848 25.04 -5.8 21.6 97 -6.2 20.9
05:20 1019 30.09 848 25.04 -5.7 21.7 97 -6.1 21
05:25 1019 30.09 848 25.04 -5.7 21.8 97 -6.1 21
05:30 1019 30.09 848 25.04 -5.7 21.7 97 -6.1 21
05:35 1019 30.09 848 25.04 -5.8 21.6 97 -6.2 20.8
05:40 1019 30.09 848 25.04 -5.8 21.6 97 -6.2 20.8
05:45 1019 30.09 848 25.04 -5.7 21.7 97 -6.2 20.9
05:50 1019 30.09 848 25.04 -5.8 21.6 97 -6.2 20.9
05:55 1019 30.09 848 25.04 -5.8 21.6 97 -6.2 20.8
06:00 1019 30.09 848 25.04 -6 21.3 97 -6.4 20.5
06:05 1019 30.09 848 25.04 -6 21.2 97 -6.4 20.5
06:10 1019 30.09 848 25.04 -6 21.3 97 -6.3 20.6
06:15 1019 30.09 848 25.04 -5.8 21.5 97 -6.2 20.8
06:20 1019 30.09 848 25.04 -5.9 21.5 96 -6.4 20.5
06:25 1019 30.09 848 25.04 -6.1 21 96 -6.6 20.1
06:30 1019 30.09 848 25.04 -6.2 20.9 96 -6.7 20
06:35 1019 30.09 848 25.04 -6.2 20.9 96 -6.7 20
06:40 1019 30.09 848 25.04 -6.2 20.9 96 -6.7 19.9
06:45 1019 30.09 848 25.04 -6.2 20.8 96 -6.7 19.9
06:50 1019 30.09 848 25.04 -6.2 20.9 96 -6.7 20
06:55 1019 30.09 848 25.04 -6.1 21 96 -6.6 20.1
07:00 1019 30.09 848 25.04 -6.1 21 96 -6.6 20.1
07:05 1019 30.09 848 25.04 -6.2 20.9 96 -6.7 20
07:10 1019 30.09 848 25.04 -6.1 21 96 -6.6 20.2
07:15 1019 30.09 848 25.04 -6 21.1 96 -6.5 20.3
07:20 1019 30.09 848 25.04 -5.9 21.3 97 -6.4 20.5
07:25 1019 30.09 848 25.04 -6 21.2 96 -6.5 20.3
07:30 1019 30.09 848 25.04 -6 21.1 97 -6.5 20.3
07:35 1019 30.09 848 25.04 -5.9 21.3 97 -6.4 20.6
07:40 1019 30.09 848 25.04 -5.7 21.7 97 -6.2 20.9
07:45 1019 30.09 848 25.04 -5.7 21.7 97 -6.1 20.9
07:50 1019 30.09 848 25.04 -5.7 21.7 97 -6.2 20.8
07:55 1019 30.09 848 25.04 -5.8 21.5 97 -6.3 20.7
08:00 1019 30.09 848 25.04 -6 21.3 97 -6.4 20.6
08:05 1019 30.09 848 25.04 -6 21.2 97 -6.4 20.5
08:10 1019 30.09 848 25.04 -5.9 21.4 97 -6.2 20.8
08:15 1019 30.09 848 25.04 -5.8 21.5 97 -6.2 20.8
08:20 1019 30.09 848 25.04 -5.7 21.7 97 -6.1 20.9
08:25 1019 30.09 848 25.04 -5.7 21.7 97 -6.2 20.9
08:30 1019 30.09 848 25.04 -5.6 22 97 -6 21.2
08:35 1019 30.09 848 25.04 -5.4 22.2 96 -5.9 21.3
08:40 1019 30.09 848 25.04 -5.5 22.1 96 -6 21.1
08:45 1019 30.09 848 25.04 -5.5 22.1 96 -6 21.2
08:50 1019 30.09 848 25.04 -5.4 22.3 96 -5.9 21.3
08:55 1019 30.09 848 25.04 -5.5 22.1 97 -6 21.2
09:00 1019 30.09 848 25.04 -5.5 22.1 96 -6 21.1
09:05 1019 30.09 848 25.04 -5.4 22.2 96 -5.9 21.3
09:10 1019 30.09 848 25.04 -5.3 22.5 96 -5.8 21.5
09:15 1019 30.09 848 25.04 -5.2 22.6 96 -5.7 21.7
09:20 1019 30.09 848 25.04 -5 22.9 96 -5.6 21.9
09:25 1019 30.09 848 25.04 -4.8 23.4 96 -5.4 22.3
09:30 1019 30.09 848 25.04 -4.7 23.6 94 -5.5 22.1
09:35 1019 30.09 848 25.04 -4.8 23.3 90 -6.2 20.8
09:40 1019 30.09 848 25.04 -5.2 22.7 91 -6.5 20.3
09:45 1019 30.09 848 25.04 -5.1 22.8 90 -6.5 20.3
09:50 1019 30.09 848 25.04 -4.6 23.7 86 -6.7 20
09:55 1019 30.09 848 25.04 -4.2 24.4 82 -6.8 19.8
10:00 1019 30.09 848 25.04 -4.1 24.6 82 -6.7 20
10:05 1018 30.06 848 25.04 -3.9 24.9 80 -6.8 19.7
10:10 1018 30.06 848 25.04 -3.8 25.2 82 -6.5 20.3
10:15 1018 30.06 848 25.04 -3.1 26.4 77 -6.6 20.1
10:20 1018 30.06 848 25.04 -2.8 26.9 77 -6.4 20.5
10:25 1018 30.06 847 25.01 -2.5 27.4 75 -6.4 20.4
10:30 1018 30.06 848 25.04 -2.2 28 76 -6 21.2
10:35 1018 30.06 848 25.04 -2 28.5 74 -6 21.1
10:40 1018 30.06 847 25.01 -1.9 28.7 73 -6 21.2
10:45 1018 30.06 847 25.01 -2.3 27.9 76 -6 21.3
10:50 1018 30.06 847 25.01 -2.3 27.8 77 -5.9 21.4
10:55 1018 30.06 847 25.01 -2.1 28.3 77 -5.6 21.8
11:00 1018 30.06 847 25.01 -1.7 29 77 -5.2 22.6
11:05 1018 30.06 847 25.01 -1.7 28.9 78 -5.1 22.8
11:10 1018 30.06 847 25.01 -1.8 28.8 77 -5.3 22.4
11:15 1018 30.06 847 25.01 -2 28.4 78 -5.3 22.5
11:20 1018 30.06 847 25.01 -2.2 28 80 -5.2 22.6
11:25 1018 30.06 847 25.01 -2.3 27.8 80 -5.4 22.3
11:30 1018 30.06 847 25.01 -2.4 27.7 80 -5.4 22.3
11:35 1018 30.06 847 25.01 -2.5 27.6 81 -5.3 22.4
11:40 1018 30.06 847 25.01 -2.6 27.3 82 -5.3 22.5
11:45 1018 30.06 848 25.04 -2.7 27.1 82 -5.3 22.4
11:50 1018 30.06 848 25.04 -2.7 27.2 82 -5.4 22.3
11:55 1018 30.06 848 25.04 -2.6 27.4 82 -5.3 22.4
12:00 1018 30.06 848 25.04 -2.6 27.3 82 -5.3 22.4
12:05 1018 30.06 848 25.04 -2.6 27.3 81 -5.4 22.3
12:10 1018 30.06 848 25.04 -2.7 27.2 81 -5.4 22.2
12:15 1018 30.06 848 25.04 -2.7 27.2 81 -5.4 22.2
12:20 1018 30.06 847 25.01 -2.7 27.2 82 -5.3 22.4
12:25 1018 30.06 847 25.01 -2.9 26.8 83 -5.3 22.4
12:30 1018 30.06 847 25.01 -3 26.7 83 -5.4 22.2
12:35 1018 30.06 847 25.01 -3.2 26.3 85 -5.4 22.2
12:40 1018 30.06 847 25.01 -3.4 25.8 87 -5.2 22.6
12:45 1018 30.06 847 25.01 -3.2 26.3 86 -5.2 22.7
12:50 1018 30.06 847 25.01 -3 26.6 84 -5.4 22.3
12:55 1018 30.06 847 25.01 -3.3 26 86 -5.3 22.5
13:00 1018 30.06 847 25.01 -3.5 25.8 88 -5.2 22.7
13:05 1018 30.06 847 25.01 -3.2 26.2 89 -4.9 23.3
13:10 1018 30.06 847 25.01 -3.1 26.4 88 -4.8 23.3
13:15 1018 30.06 847 25.01 -2.9 26.8 88 -4.7 23.6
13:20 1018 30.06 847 25.01 -2.8 27 85 -4.9 23.1
13:25 1018 30.06 847 25.01 -2.7 27.2 85 -4.8 23.3
13:30 1018 30.06 847 25.01 -2.6 27.3 86 -4.6 23.7
13:35 1018 30.06 847 25.01 -2.3 27.9 84 -4.7 23.6
13:40 1018 30.06 847 25.01 -2.1 28.2 84 -4.5 23.9
13:45 1018 30.06 847 25.01 -2.1 28.2 84 -4.4 24.1
13:50 1018 30.06 847 25.01 -2.1 28.2 85 -4.3 24.2
13:55 1018 30.06 847 25.01 -2.2 28 85 -4.3 24.2
14:00 1018 30.06 847 25.01 -2.2 28.1 84 -4.5 23.8
14:05 1018 30.06 847 25.01 -2.6 27.4 87 -4.4 24
14:10 1018 30.06 847 25.01 -2.8 26.9 89 -4.4 24.1
14:15 1017 30.03 847 25.01 -2.7 27.1 89 -4.3 24.3
14:20 1017 30.03 847 25.01 -2.4 27.7 86 -4.5 24
14:25 1017 30.03 847 25.01 -2.6 27.4 88 -4.3 24.2
14:30 1017 30.03 847 25.01 -2.4 27.6 88 -4.2 24.4
14:35 1017 30.03 847 25.01 -2.4 27.7 88 -4.1 24.6
14:40 1017 30.03 847 25.01 -2.4 27.6 89 -4 24.7
14:45 1017 30.03 847 25.01 -2.5 27.4 88 -4.2 24.4
14:50 1017 30.03 847 25.01 -3 26.6 90 -4.4 24
14:55 1017 30.03 847 25.01 -3 26.5 92 -4.2 24.4
15:00 1017 30.03 847 25.01 -2.4 27.7 87 -4.3 24.3
15:05 1018 30.06 847 25.01 -2.2 28.1 85 -4.3 24.3
15:10 1018 30.06 847 25.01 -2.1 28.2 86 -4.1 24.6
15:15 1018 30.06 847 25.01 -2.1 28.3 87 -4 24.9
15:20 1018 30.06 847 25.01 -2.2 28.1 85 -4.3 24.3
15:25 1018 30.06 847 25.01 -2.3 27.9 86 -4.4 24.1
15:30 1018 30.06 847 25.01 -2.4 27.6 88 -4.2 24.4
15:35 1018 30.06 847 25.01 -2.3 27.9 86 -4.4 24.1
15:40 1018 30.06 847 25.01 -2.2 28.1 85 -4.4 24.2
15:45 1018 30.06 847 25.01 -2.1 28.3 84 -4.4 24.1
15:50 1018 30.06 847 25.01 -2.2 28 85 -4.4 24
15:55 1018 30.06 847 25.01 -2.1 28.3 83 -4.5 23.9
16:00 1018 30.06 847 25.01 -2.1 28.2 84 -4.4 24.1
16:05 1018 30.06 847 25.01 -2.4 27.7 86 -4.4 24.1
16:10 1018 30.06 847 25.01 -2.7 27.2 87 -4.6 23.7
16:15 1018 30.06 847 25.01 -3 26.7 89 -4.5 24
16:20 1018 30.06 847 25.01 -3 26.5 90 -4.4 24
16:25 1018 30.06 847 25.01 -2.9 26.7 89 -4.4 24
16:30 1018 30.06 847 25.01 -2.9 26.8 89 -4.4 24
16:35 1018 30.06 847 25.01 -2.6 27.2 88 -4.4 24.1
16:40 1018 30.06 847 25.01 -2.5 27.5 88 -4.2 24.5
16:45 1018 30.06 847 25.01 -2.5 27.6 87 -4.3 24.2
16:50 1018 30.06 847 25.01 -2.9 26.9 89 -4.4 24.1
16:55 1018 30.06 847 25.01 -2.7 27.1 89 -4.3 24.3
17:00 1018 30.06 847 25.01 -2.7 27.1 89 -4.3 24.3
17:05 1018 30.06 847 25.01 -2.7 27.1 89 -4.2 24.4
17:10 1018 30.06 847 25.01 -2.5 27.4 88 -4.3 24.3
17:15 1018 30.06 847 25.01 -2.4 27.6 88 -4.2 24.5
17:20 1018 30.06 847 25.01 -2.5 27.5 88 -4.2 24.5
17:25 1018 30.06 847 25.01 -2.5 27.4 88 -4.3 24.3
17:30 1018 30.06 847 25.01 -2.7 27.2 89 -4.2 24.4
17:35 1018 30.06 847 25.01 -2.8 27 89 -4.3 24.2
17:40 1018 30.06 847 25.01 -2.8 26.9 90 -4.3 24.3
17:45 1018 30.06 847 25.01 -2.8 26.9 91 -4.2 24.5
17:50 1018 30.06 847 25.01 -2.7 27.2 89 -4.2 24.4
17:55 1018 30.06 847 25.01 -2.9 26.8 90 -4.3 24.3
18:00 1018 30.06 847 25.01 -3 26.7 91 -4.3 24.2
18:05 1018 30.06 847 25.01 -3 26.6 91 -4.3 24.2
18:10 1018 30.06 847 25.01 -3 26.6 90 -4.4 24.2
18:15 1018 30.06 847 25.01 -2.9 26.7 90 -4.4 24.1
18:20 1018 30.06 847 25.01 -2.9 26.8 89 -4.4 24
18:25 1018 30.06 847 25.01 -3 26.6 89 -4.5 23.9
18:30 1018 30.06 847 25.01 -3 26.6 90 -4.5 24
18:35 1018 30.06 847 25.01 -2.9 26.8 90 -4.4 24.1
18:40 1018 30.06 847 25.01 -2.9 26.7 90 -4.4 24.1
18:45 1018 30.06 847 25.01 -3.1 26.4 92 -4.3 24.3
18:50 1018 30.06 847 25.01 -3.3 26 93 -4.3 24.2
18:55 1018 30.06 847 25.01 -3.1 26.4 92 -4.2 24.5
19:00 1018 30.06 847 25.01 -3.1 26.4 91 -4.4 24.1
19:05 1018 30.06 847 25.01 -3.4 25.9 92 -4.5 23.9
19:10 1018 30.06 847 25.01 -3.7 25.4 94 -4.6 23.8
19:15 1018 30.06 847 25.01 -3.6 25.5 94 -4.4 24
19:20 1018 30.06 847 25.01 -3.7 25.4 95 -4.4 24
19:25 1018 30.06 848 25.04 -3.5 25.8 94 -4.3 24.3
19:30 1019 30.09 848 25.04 -3.2 26.2 93 -4.3 24.3
19:35 1019 30.09 848 25.04 -3.2 26.2 92 -4.3 24.3
19:40 1019 30.09 848 25.04 -3.4 26 93 -4.4 24.1
19:45 1019 30.09 848 25.04 -3.6 25.5 94 -4.5 23.9
19:50 1019 30.09 848 25.04 -4 24.8 95 -4.6 23.7
19:55 1019 30.09 848 25.04 -4 24.7 96 -4.6 23.7
20:00 1019 30.09 848 25.04 -3.9 24.9 97 -4.4 24.1
20:05 1019 30.09 848 25.04 -3.6 25.5 96 -4.2 24.4
20:10 1019 30.09 848 25.04 -3.5 25.7 95 -4.3 24.3
20:15 1019 30.09 848 25.04 -3.5 25.8 94 -4.3 24.2
20:20 1019 30.09 848 25.04 -3.7 25.4 94 -4.4 24
20:25 1019 30.09 848 25.04 -3.7 25.4 95 -4.4 24
20:30 1019 30.09 848 25.04 -3.9 25 95 -4.5 23.8
20:35 1019 30.09 848 25.04 -3.9 25 96 -4.5 23.9
20:40 1019 30.09 848 25.04 -4.1 24.7 96 -4.7 23.6
20:45 1019 30.09 848 25.04 -3.9 25 96 -4.5 24
20:50 1019 30.09 848 25.04 -3.8 25.2 96 -4.4 24.1
20:55 1019 30.09 848 25.04 -3.6 25.5 96 -4.2 24.4
21:00 1019 30.09 848 25.04 -3.5 25.8 95 -4.2 24.5
21:05 1019 30.09 848 25.04 -3.5 25.7 94 -4.3 24.3
21:10 1019 30.09 848 25.04 -3.5 25.7 94 -4.3 24.3
21:15 1019 30.09 848 25.04 -3.5 25.7 94 -4.4 24.1
21:20 1019 30.09 848 25.04 -3.6 25.5 94 -4.4 24.1
21:25 1019 30.09 848 25.04 -3.6 25.5 94 -4.4 24.1
21:30 1019 30.09 848 25.04 -3.6 25.5 94 -4.4 24
21:35 1019 30.09 848 25.04 -3.8 25.2 96 -4.4 24.1
21:40 1019 30.09 848 25.04 -3.7 25.3 96 -4.3 24.2
21:45 1019 30.09 848 25.04 -3.6 25.5 96 -4.2 24.4
21:50 1019 30.09 848 25.04 -3.6 25.5 95 -4.3 24.3
21:55 1019 30.09 848 25.04 -3.6 25.5 95 -4.3 24.3
22:00 1019 30.09 848 25.04 -3.5 25.7 95 -4.1 24.5
22:05 1019 30.09 848 25.04 -3.5 25.7 95 -4.2 24.4
22:10 1019 30.09 848 25.04 -3.6 25.5 95 -4.3 24.2
22:15 1019 30.09 848 25.04 -3.7 25.3 96 -4.3 24.2
22:20 1019 30.09 848 25.04 -3.7 25.3 95 -4.4 24.2
22:25 1019 30.09 848 25.04 -3.7 25.4 96 -4.3 24.3
22:30 1019 30.09 849 25.07 -3.6 25.6 95 -4.2 24.4
22:35 1019 30.09 848 25.04 -3.6 25.5 95 -4.3 24.3
22:40 1019 30.09 848 25.04 -3.6 25.5 95 -4.2 24.4
22:45 1019 30.09 848 25.04 -3.6 25.5 95 -4.2 24.4
22:50 1019 30.09 848 25.04 -3.7 25.4 96 -4.3 24.3
22:55 1019 30.09 848 25.04 -3.7 25.3 96 -4.3 24.3
23:00 1019 30.09 848 25.04 -3.7 25.3 96 -4.3 24.2
23:05 1019 30.09 848 25.04 -3.7 25.4 96 -4.2 24.4
23:10 1019 30.09 848 25.04 -3.6 25.5 96 -4.2 24.5
23:15 1019 30.09 848 25.04 -3.4 25.8 96 -4 24.9
23:20 1019 30.09 848 25.04 -3.4 25.8 95 -4.1 24.7
23:25 1019 30.09 848 25.04 -3.3 26.1 96 -3.9 25.1
23:30 1019 30.09 848 25.04 -3.2 26.2 95 -3.9 24.9
23:35 1019 30.09 848 25.04 -3.4 25.8 95 -4.1 24.6
23:40 1019 30.09 848 25.04 -3.6 25.5 96 -4.2 24.5
23:45 1019 30.09 848 25.04 -3.4 25.8 97 -3.9 25
23:50 1019 30.09 848 25.04 -3.2 26.3 96 -3.7 25.3
23:55 1019 30.09 848 25.04 -3.2 26.2 95 -3.9 25
24:00 1019 30.09 848 25.04 -3.4 25.9 94 -4.2 24.5